Time;durP1;ratioP1;P1;durP2;ratioP2;P2;SDS_P1;SDS_P2;PMS_P1;PMS_P2;Temp;Humidity;BMP_temperature;BMP_pressure;BME280_temperature;BME280_humidity;BME280_pressure;Samples;Min_cycle;Max_cycle;Signal;HPM_P1;HPM_P2
2022/10/07 00:00:59;;;;;;;7.80;2.10;;;;;;;8.27;81.95;102111.57;104309;1298;72898;-79
2022/10/07 00:03:26;;;;;;;10.30;2.80;;;;;;;8.29;82.13;102111.90;104690;1305;71891;-80
2022/10/07 00:06:05;;;;;;;9.80;2.30;;;;;;;8.30;82.02;102106.15;105166;1298;60145;-80
2022/10/07 00:08:34;;;;;;;9.00;2.40;;;;;;;8.31;81.99;102103.60;104753;1299;59756;-79
2022/10/07 00:11:23;;;;;;;9.30;2.40;;;;;;;8.32;82.13;102104.23;104770;1305;74429;-80
2022/10/07 00:13:53;;;;;;;7.50;2.30;;;;;;;8.32;81.85;102107.41;104561;1302;71468;-80
2022/10/07 00:16:25;;;;;;;8.00;2.30;;;;;;;8.33;82.15;102106.44;104687;1294;72994;-80
2022/10/07 00:18:56;;;;;;;8.90;2.60;;;;;;;8.33;81.82;102108.23;104910;1298;60493;-80
2022/10/07 00:21:25;;;;;;;9.80;2.50;;;;;;;8.32;81.92;102110.39;104699;1299;61270;-80
2022/10/07 00:23:52;;;;;;;9.10;2.40;;;;;;;8.31;82.52;102105.02;104780;1299;71802;-80
2022/10/07 00:26:21;;;;;;;6.70;2.20;;;;;;;8.30;81.54;102101.23;104575;1298;70798;-80
2022/10/07 00:28:49;;;;;;;9.20;2.60;;;;;;;8.28;81.79;102101.61;104579;1297;72090;-80
2022/10/07 00:31:19;;;;;;;9.90;2.30;;;;;;;8.24;81.74;102096.96;104663;1298;60247;-81
2022/10/07 00:33:47;;;;;;;6.80;2.40;;;;;;;8.21;82.17;102090.69;104554;1297;60416;-80
2022/10/07 00:36:19;;;;;;;12.30;2.80;;;;;;;8.18;82.39;102086.19;104655;1288;72905;-80
2022/10/07 00:38:51;;;;;;;8.80;2.50;;;;;;;8.15;81.89;102083.43;104770;1296;71242;-81
2022/10/07 00:41:21;;;;;;;8.40;2.40;;;;;;;8.13;82.26;102080.08;104861;1291;72799;-81
2022/10/07 00:43:48;;;;;;;8.70;2.10;;;;;;;8.11;82.22;102078.22;104511;1302;61105;-81
2022/10/07 00:46:20;;;;;;;11.50;2.80;;;;;;;8.10;82.35;102072.92;104890;1289;59365;-79
2022/10/07 00:48:46;;;;;;;9.20;2.40;;;;;;;8.09;82.56;102064.70;104771;1298;72618;-80
2022/10/07 00:51:16;;;;;;;8.20;2.70;;;;;;;8.08;82.40;102062.52;104752;1296;70384;-80
2022/10/07 00:53:48;;;;;;;13.00;2.70;;;;;;;8.08;82.93;102060.75;104418;1302;71542;-81
2022/10/07 00:56:16;;;;;;;8.40;2.10;;;;;;;8.07;83.44;102056.23;104487;1298;59974;-82
2022/10/07 00:58:46;;;;;;;10.40;2.50;;;;;;;8.07;83.46;102052.50;104802;1296;61595;-80
2022/10/07 01:01:13;;;;;;;6.50;2.00;;;;;;;8.08;83.38;102050.00;104918;1289;74357;-81
2022/10/07 01:03:39;;;;;;;10.10;2.10;;;;;;;8.07;83.61;102048.98;104915;1297;71290;-80
2022/10/07 01:06:06;;;;;;;7.80;2.20;;;;;;;8.07;83.52;102041.98;104897;1296;73404;-80
2022/10/07 01:08:33;;;;;;;8.00;2.20;;;;;;;8.08;83.38;102039.27;104668;1298;59859;-81
2022/10/07 01:11:12;;;;;;;7.90;2.40;;;;;;;8.08;83.31;102036.94;104831;1295;60084;-80
2022/10/07 01:14:18;;;;;;;7.30;1.90;;;;;;;8.08;83.16;102035.33;104881;1286;73350;-80
2022/10/07 01:16:56;;;;;;;6.40;1.90;;;;;;;8.08;83.46;102032.52;104964;1295;70518;-79
2022/10/07 01:19:56;;;;;;;11.30;2.20;;;;;;;8.08;83.38;102030.06;104842;1296;73827;-80
2022/10/07 01:22:36;;;;;;;7.90;1.90;;;;;;;8.07;83.27;102025.52;104781;1303;61048;-81
2022/10/07 01:25:54;;;;;;;7.80;2.00;;;;;;;8.07;83.44;102019.39;104759;1295;59319;-80
2022/10/07 01:28:28;;;;;;;7.90;2.10;;;;;;;8.07;83.19;102020.48;104705;1296;73063;-81
2022/10/07 01:30:59;;;;;;;9.20;2.00;;;;;;;8.06;82.95;102015.98;104642;1300;69540;-80
2022/10/07 01:33:29;;;;;;;6.70;1.80;;;;;;;8.03;82.68;102011.85;105109;1295;73174;-81
2022/10/07 01:36:03;;;;;;;7.70;2.00;;;;;;;8.00;82.67;102013.29;104775;1298;61264;-80
2022/10/07 01:38:32;;;;;;;8.00;2.00;;;;;;;7.95;82.42;102010.84;104916;1274;58947;-79
2022/10/07 01:43:25;;;;;;;9.80;2.20;;;;;;;7.86;82.79;102006.11;104972;1267;59339;-80
2022/10/07 01:45:53;;;;;;;8.70;1.90;;;;;;;7.83;82.58;102001.13;104886;1266;196130;-76
2022/10/07 01:48:20;;;;;;;7.60;1.80;;;;;;;7.80;82.65;102002.96;105056;1297;60982;-76
2022/10/07 01:50:48;;;;;;;7.10;2.10;;;;;;;7.73;82.56;102001.70;105222;1293;58454;-76
2022/10/07 01:53:33;;;;;;;9.30;1.90;;;;;;;7.67;82.75;101997.09;105075;1302;73663;-77
2022/10/07 01:56:26;;;;;;;8.60;1.90;;;;;;;7.60;82.78;101995.02;105100;1297;70671;-76
2022/10/07 01:59:14;;;;;;;6.90;1.90;;;;;;;7.54;82.63;101990.97;105092;1292;72500;-77
2022/10/07 02:01:48;;;;;;;7.70;1.80;;;;;;;7.46;82.68;101985.96;105146;1289;59639;-76
2022/10/07 02:04:35;;;;;;;6.80;1.90;;;;;;;7.38;82.58;101977.77;105255;1300;60972;-76
2022/10/07 02:07:16;;;;;;;7.20;2.10;;;;;;;7.31;82.84;101976.58;105175;1298;72379;-77
2022/10/07 02:09:51;;;;;;;9.40;2.90;;;;;;;7.22;82.67;101971.10;105225;1292;73504;-77
2022/10/07 02:12:28;;;;;;;11.90;2.40;;;;;;;7.14;83.14;101970.85;105193;1289;72196;-76
2022/10/07 02:15:12;;;;;;;6.40;2.10;;;;;;;7.09;83.55;101969.91;105064;1298;61013;-77
2022/10/07 02:17:46;;;;;;;9.70;2.30;;;;;;;7.04;84.21;101965.00;105124;1290;59245;-77
2022/10/07 02:20:15;;;;;;;10.10;2.50;;;;;;;7.02;84.43;101967.41;104996;1297;75710;-77
2022/10/07 02:22:45;;;;;;;10.90;2.30;;;;;;;7.02;84.64;101963.89;105002;1297;70962;-76
2022/10/07 02:25:14;;;;;;;7.20;2.00;;;;;;;7.02;84.98;101963.77;105065;1298;71300;-77
2022/10/07 02:27:43;;;;;;;7.40;2.40;;;;;;;7.00;84.81;101963.54;105016;1298;59130;-76
2022/10/07 02:30:14;;;;;;;6.20;2.30;;;;;;;6.97;84.94;101961.33;105149;1298;59276;-77
2022/10/07 02:32:46;;;;;;;8.90;2.30;;;;;;;6.94;84.93;101963.98;105056;1300;73170;-77
2022/10/07 02:35:22;;;;;;;8.70;2.60;;;;;;;6.92;85.27;101958.69;105184;1300;69623;-77
2022/10/07 02:37:52;;;;;;;9.90;2.40;;;;;;;6.91;85.30;101955.27;104938;1298;72486;-77
2022/10/07 02:40:23;;;;;;;8.20;2.80;;;;;;;6.89;85.48;101952.77;104998;1307;59056;-77
2022/10/07 02:42:59;;;;;;;7.60;2.80;;;;;;;6.87;85.62;101949.80;105062;1292;60155;-77
2022/10/07 02:45:56;;;;;;;10.60;2.40;;;;;;;6.85;85.38;101947.64;105035;1298;73478;-77
2022/10/07 02:48:40;;;;;;;8.00;2.20;;;;;;;6.83;85.72;101944.45;105045;1290;71901;-77
2022/10/07 02:51:15;;;;;;;8.40;2.30;;;;;;;6.81;85.76;101944.05;105071;1299;71873;-77
2022/10/07 02:53:50;;;;;;;8.10;2.50;;;;;;;6.79;85.83;101940.17;104944;1292;61245;-77
2022/10/07 02:56:19;;;;;;;6.90;2.20;;;;;;;6.78;85.93;101937.12;105170;1297;59491;-77
2022/10/07 02:58:47;;;;;;;9.10;2.80;;;;;;;6.77;85.91;101934.59;105051;1299;72849;-77
2022/10/07 03:01:22;;;;;;;8.80;2.40;;;;;;;6.76;86.22;101937.26;105115;1298;69874;-77
2022/10/07 03:03:48;;;;;;;10.50;2.70;;;;;;;6.74;85.95;101933.55;105143;1291;72534;-77
2022/10/07 03:06:19;;;;;;;8.70;2.30;;;;;;;6.73;86.00;101934.30;105157;1298;58268;-77
2022/10/07 03:08:46;;;;;;;7.90;2.40;;;;;;;6.71;86.05;101935.33;104948;1299;59853;-77
2022/10/07 03:11:13;;;;;;;8.80;2.70;;;;;;;6.69;85.99;101938.35;105077;1292;72989;-77
2022/10/07 03:13:39;;;;;;;7.50;2.30;;;;;;;6.66;86.25;101933.30;105171;1290;69572;-77
2022/10/07 03:16:06;;;;;;;7.10;2.40;;;;;;;6.63;86.44;101932.81;105121;1297;58161;-76
2022/10/07 03:18:33;;;;;;;8.40;2.60;;;;;;;6.60;86.12;101929.52;104941;1306;58252;-77
2022/10/07 03:21:00;;;;;;;8.30;2.80;;;;;;;6.58;86.21;101931.30;105029;1300;59045;-76
2022/10/07 03:23:28;;;;;;;6.70;2.50;;;;;;;6.55;86.43;101925.88;105095;1299;58342;-77
2022/10/07 03:25:56;;;;;;;10.20;3.00;;;;;;;6.52;86.64;101927.98;105154;1298;69132;-77
2022/10/07 03:28:25;;;;;;;7.70;2.80;;;;;;;6.51;86.87;101923.40;104813;1300;73388;-77
2022/10/07 03:30:53;;;;;;;8.30;2.30;;;;;;;6.48;86.74;101918.98;105048;1292;59954;-77
2022/10/07 03:33:23;;;;;;;8.90;2.60;;;;;;;6.48;87.00;101918.17;105058;1300;60092;-76
2022/10/07 03:35:50;;;;;;;8.20;3.10;;;;;;;6.47;87.00;101915.41;105063;1290;74135;-77
2022/10/07 03:38:16;;;;;;;8.90;2.70;;;;;;;6.48;87.08;101906.40;104989;1305;71650;-77
2022/10/07 03:40:44;;;;;;;8.10;2.70;;;;;;;6.48;87.17;101904.65;105072;1298;58612;-77
2022/10/07 03:43:10;;;;;;;9.00;2.80;;;;;;;6.47;87.15;101905.72;105016;1299;61536;-77
2022/10/07 03:45:43;;;;;;;8.60;2.90;;;;;;;6.45;87.10;101903.81;104999;1296;235956;-77
2022/10/07 03:48:10;;;;;;;9.30;2.70;;;;;;;6.42;86.85;101899.61;105161;1298;74076;-77
2022/10/07 03:50:37;;;;;;;10.00;3.10;;;;;;;6.42;87.08;101900.37;105138;1267;70782;-76
2022/10/07 03:53:03;;;;;;;8.10;2.90;;;;;;;6.39;86.89;101900.21;105236;1296;74341;-77
2022/10/07 03:55:30;;;;;;;11.10;3.10;;;;;;;6.37;86.99;101896.72;105212;1296;59661;-77
2022/10/07 03:57:56;;;;;;;7.90;3.00;;;;;;;6.35;87.02;101895.08;105193;1296;59354;-77
2022/10/07 04:00:26;;;;;;;8.90;3.10;;;;;;;6.34;87.14;101890.96;105164;1291;73607;-77
2022/10/07 04:02:52;;;;;;;10.70;3.10;;;;;;;6.31;87.36;101888.88;105184;1293;70962;-76
2022/10/07 04:05:20;;;;;;;7.90;2.80;;;;;;;6.29;87.32;101889.02;105270;1288;72853;-77
2022/10/07 04:07:49;;;;;;;9.40;3.00;;;;;;;6.27;87.25;101887.48;105233;1289;61137;-77
2022/10/07 04:10:17;;;;;;;9.20;3.00;;;;;;;6.23;87.18;101885.29;105181;1300;58494;-77
2022/10/07 04:12:44;;;;;;;7.70;2.90;;;;;;;6.19;87.32;101880.52;105129;1295;74407;-76
2022/10/07 04:15:13;;;;;;;8.60;3.30;;;;;;;6.16;87.36;101883.20;105270;1286;70659;-77
2022/10/07 04:17:40;;;;;;;9.70;3.20;;;;;;;6.13;87.45;101882.33;105238;1296;71197;-77
2022/10/07 04:20:10;;;;;;;7.10;3.00;;;;;;;6.11;87.72;101882.44;105202;1290;59945;-77
2022/10/07 04:22:37;;;;;;;9.80;3.30;;;;;;;6.12;87.81;101878.52;105243;1295;61013;-77
2022/10/07 04:27:57;;;;;;;6.90;3.20;;;;;;;6.07;87.56;101880.34;105192;1297;71398;-77
2022/10/07 04:30:25;;;;;;;9.50;2.90;;;;;;;6.03;87.71;101880.67;105082;1296;71177;-77
2022/10/07 04:32:52;;;;;;;7.30;2.80;;;;;;;5.97;87.71;101877.40;105218;1296;61296;-77
2022/10/07 04:35:21;;;;;;;10.70;3.10;;;;;;;5.92;87.74;101873.50;105185;1295;58893;-77
2022/10/07 04:37:52;;;;;;;11.60;3.30;;;;;;;5.91;88.08;101870.48;105209;1296;72669;-77
2022/10/07 04:40:20;;;;;;;6.60;2.70;;;;;;;5.89;88.30;101868.70;105185;1291;71869;-81
2022/10/07 04:45:34;;;;;;;9.70;2.80;;;;;;;5.89;89.16;101868.64;105074;1295;60655;-81
2022/10/07 04:48:04;;;;;;;9.00;3.10;;;;;;;5.92;89.33;101864.21;105138;1288;61035;-81
2022/10/07 04:50:32;;;;;;;8.90;3.20;;;;;;;5.95;89.61;101863.70;105237;1292;75034;-81
2022/10/07 04:52:59;;;;;;;11.10;3.20;;;;;;;5.98;89.60;101863.16;105235;1289;69106;-81
2022/10/07 04:55:25;;;;;;;8.80;3.00;;;;;;;6.00;89.76;101862.45;105203;1298;58733;-81
2022/10/07 04:57:52;;;;;;;9.20;3.30;;;;;;;6.02;89.90;101858.07;105201;1289;58314;-81
2022/10/07 05:00:18;;;;;;;9.40;3.00;;;;;;;6.07;90.41;101857.52;105138;1298;58229;-81
2022/10/07 05:02:49;;;;;;;10.10;3.00;;;;;;;6.11;90.46;101854.20;105172;1291;58838;-81
2022/10/07 05:05:16;;;;;;;11.50;3.00;;;;;;;6.17;90.87;101852.03;105259;1290;71499;-81
2022/10/07 05:07:48;;;;;;;9.60;2.70;;;;;;;6.23;90.71;101851.73;105230;1289;72808;-81
2022/10/07 05:10:15;;;;;;;8.10;3.00;;;;;;;6.28;90.50;101851.55;105216;1299;62136;-81
2022/10/07 05:12:42;;;;;;;8.00;2.60;;;;;;;6.33;90.73;101849.23;105269;1289;58683;-83
2022/10/07 05:15:09;;;;;;;10.00;2.90;;;;;;;6.38;90.88;101845.46;104989;1299;74759;-82
2022/10/07 05:17:37;;;;;;;9.10;3.00;;;;;;;6.43;90.89;101845.98;105201;1303;70637;-82
2022/10/07 05:20:03;;;;;;;9.40;3.00;;;;;;;6.48;90.63;101848.92;105054;1291;72461;-82
2022/10/07 05:22:30;;;;;;;7.80;3.30;;;;;;;6.54;90.69;101846.91;105174;1299;61017;-83
2022/10/07 05:24:57;;;;;;;8.70;3.30;;;;;;;6.58;90.50;101845.88;105190;1291;59563;-82
2022/10/07 05:27:23;;;;;;;10.20;2.80;;;;;;;6.62;90.30;101843.98;105201;1292;73130;-82
2022/10/07 05:29:50;;;;;;;7.70;2.80;;;;;;;6.66;90.18;101846.83;105178;1299;58993;-77
2022/10/07 05:32:17;;;;;;;8.50;2.80;;;;;;;6.71;90.40;101848.02;105140;1292;58773;-77
2022/10/07 05:34:43;;;;;;;8.10;2.50;;;;;;;6.77;90.23;101840.16;105270;1297;59033;-77
2022/10/07 05:37:11;;;;;;;8.30;2.50;;;;;;;6.83;90.00;101841.23;105244;1291;58157;-76
2022/10/07 05:39:37;;;;;;;7.90;2.30;;;;;;;6.89;89.60;101836.88;105180;1297;74468;-76
2022/10/07 05:42:03;;;;;;;9.30;2.50;;;;;;;6.94;89.30;101834.20;105275;1298;58659;-76
2022/10/07 05:44:31;;;;;;;6.80;2.40;;;;;;;6.99;89.51;101831.04;105340;1295;58339;-76
2022/10/07 05:46:58;;;;;;;7.10;2.50;;;;;;;7.03;89.01;101829.51;105171;1298;61178;-77
2022/10/07 05:49:24;;;;;;;10.10;2.90;;;;;;;7.07;89.04;101828.64;105062;1290;59193;-77
2022/10/07 05:51:51;;;;;;;6.70;2.30;;;;;;;7.11;88.95;101828.98;105264;1299;58702;-77
2022/10/07 05:54:17;;;;;;;11.60;2.60;;;;;;;7.14;88.64;101827.64;105236;1291;59711;-77
2022/10/07 05:56:44;;;;;;;9.50;2.40;;;;;;;7.20;88.43;101827.75;105124;1296;58440;-77
2022/10/07 05:59:10;;;;;;;7.10;2.30;;;;;;;7.24;88.64;101822.08;105126;1299;58414;-77
2022/10/07 06:01:37;;;;;;;7.60;2.20;;;;;;;7.29;88.18;101817.82;105259;1294;60281;-77
2022/10/07 06:04:05;;;;;;;9.90;2.70;;;;;;;7.33;88.04;101819.05;105316;1296;58548;-77
2022/10/07 06:06:35;;;;;;;7.10;2.10;;;;;;;7.39;87.98;101814.06;105260;1294;70844;-77
2022/10/07 06:14:32;;;;;;;6.70;2.00;;;;;;;7.57;87.29;101820.48;105272;1302;61380;-77
2022/10/07 06:16:59;;;;;;;8.40;2.20;;;;;;;7.62;86.97;101820.73;105164;1292;72928;-77
2022/10/07 06:19:25;;;;;;;7.00;2.20;;;;;;;7.68;86.75;101817.92;105181;1298;71212;-77
2022/10/07 06:21:52;;;;;;;7.40;2.20;;;;;;;7.73;86.77;101811.40;105089;1305;72457;-77
2022/10/07 06:24:19;;;;;;;8.00;1.90;;;;;;;7.79;86.66;101810.33;105346;1297;58116;-77
2022/10/07 06:26:45;;;;;;;10.20;2.40;;;;;;;7.86;86.61;101810.97;105299;1299;59029;-77
2022/10/07 06:29:12;;;;;;;7.30;2.10;;;;;;;7.94;86.56;101807.10;105340;1290;58753;-77
2022/10/07 06:31:38;;;;;;;6.60;1.90;;;;;;;8.03;86.09;101808.17;105273;1299;70854;-77
2022/10/07 06:34:05;;;;;;;6.30;1.90;;;;;;;8.11;85.98;101807.83;105294;1297;71152;-77
2022/10/07 06:36:31;;;;;;;6.50;2.40;;;;;;;8.20;85.48;101802.48;105256;1295;58448;-77
2022/10/07 06:38:58;;;;;;;6.90;2.30;;;;;;;8.28;85.55;101803.60;105234;1297;57987;-77
2022/10/07 06:41:24;;;;;;;7.30;2.00;;;;;;;8.36;85.09;101806.34;105293;1299;58897;-77
2022/10/07 06:43:55;;;;;;;8.80;2.00;;;;;;;8.47;85.03;101805.66;105351;1297;69876;-77
2022/10/07 06:46:21;;;;;;;6.20;1.80;;;;;;;8.58;84.81;101810.64;105151;1296;71959;-77
2022/10/07 06:48:51;;;;;;;7.50;2.00;;;;;;;8.69;84.64;101806.17;105216;1297;59636;-77
2022/10/07 06:51:19;;;;;;;6.40;2.00;;;;;;;8.80;84.28;101807.48;105012;1297;58595;-77
2022/10/07 06:53:57;;;;;;;8.50;2.40;;;;;;;8.91;84.03;101812.15;105168;1297;73875;-77
2022/10/07 06:56:24;;;;;;;8.00;2.50;;;;;;;9.04;83.77;101811.06;105259;1300;69209;-77
2022/10/07 06:58:51;;;;;;;6.10;2.00;;;;;;;9.15;83.38;101811.96;105231;1296;58123;-77
2022/10/07 07:01:17;;;;;;;7.20;2.00;;;;;;;9.26;83.01;101805.52;105267;1291;60049;-76
2022/10/07 07:03:44;;;;;;;7.20;2.30;;;;;;;9.34;82.33;101805.30;105146;1298;58481;-76
2022/10/07 07:06:10;;;;;;;7.60;1.90;;;;;;;9.46;82.03;101803.90;105152;1296;58058;-77
2022/10/07 07:08:39;;;;;;;7.90;2.00;;;;;;;9.58;81.83;101807.70;105259;1288;69671;-77
2022/10/07 07:13:54;;;;;;;7.80;1.80;;;;;;;9.84;80.47;101806.73;105223;1297;59674;-75
2022/10/07 07:16:23;;;;;;;5.80;1.60;;;;;;;9.96;80.26;101805.11;105252;1297;58828;-76
2022/10/07 07:18:54;;;;;;;6.40;1.80;;;;;;;10.08;79.62;101809.98;105230;1299;72995;-78
2022/10/07 07:21:22;;;;;;;6.00;1.70;;;;;;;10.23;79.74;101812.48;105141;1300;70178;-77
2022/10/07 07:23:52;;;;;;;5.10;1.70;;;;;;;10.38;79.22;101809.30;105277;1298;73443;-77
2022/10/07 07:26:22;;;;;;;6.30;1.90;;;;;;;10.51;78.53;101805.42;105267;1297;61790;-77
2022/10/07 07:29:02;;;;;;;7.50;1.80;;;;;;;10.66;78.53;101801.32;105085;1299;59331;-77
2022/10/07 07:31:31;;;;;;;5.90;1.90;;;;;;;10.78;77.07;101801.36;105341;1294;72077;-75
2022/10/07 07:34:00;;;;;;;7.70;1.80;;;;;;;10.92;77.08;101796.52;105243;1299;69561;-75
2022/10/07 07:36:29;;;;;;;8.00;2.20;;;;;;;11.04;76.87;101795.18;105199;1299;71627;-75
2022/10/07 07:39:01;;;;;;;7.40;1.70;;;;;;;11.13;75.30;101797.58;105173;1293;61919;-75
2022/10/07 07:41:31;;;;;;;4.90;1.80;;;;;;;11.20;74.53;101794.41;105277;1297;60140;-75
2022/10/07 07:43:59;;;;;;;5.10;1.70;;;;;;;11.29;74.60;101792.50;105179;1300;73629;-75
2022/10/07 07:46:31;;;;;;;7.40;1.60;;;;;;;11.37;74.04;101790.41;105250;1292;69515;-75
2022/10/07 07:48:58;;;;;;;6.50;1.70;;;;;;;11.48;73.68;101791.83;105304;1296;71659;-75
2022/10/07 07:51:24;;;;;;;7.70;1.40;;;;;;;11.60;73.39;101792.98;105259;1292;58034;-76
2022/10/07 07:53:51;;;;;;;6.60;1.70;;;;;;;11.69;72.19;101789.75;105268;1299;58659;-77
2022/10/07 07:56:18;;;;;;;5.80;1.50;;;;;;;11.77;71.77;101786.75;105201;1292;58731;-74
2022/10/07 07:58:45;;;;;;;7.20;1.70;;;;;;;11.87;71.73;101786.89;105149;1298;70835;-74
2022/10/07 08:01:14;;;;;;;6.00;1.50;;;;;;;11.95;71.57;101781.65;105096;1300;71306;-74
2022/10/07 08:03:45;;;;;;;7.30;1.70;;;;;;;12.03;71.18;101779.34;104998;1298;60494;-74
2022/10/07 08:06:13;;;;;;;7.70;1.90;;;;;;;12.14;70.94;101779.30;105153;1299;58791;-73
2022/10/07 08:08:42;;;;;;;5.90;2.00;;;;;;;12.27;70.71;101778.16;105027;1291;72644;-76
2022/10/07 08:11:14;;;;;;;7.70;1.70;;;;;;;12.41;70.27;101776.52;105237;1299;70031;-76
2022/10/07 08:13:40;;;;;;;6.20;1.80;;;;;;;12.46;68.77;101774.17;105220;1298;73679;-76
2022/10/07 08:16:13;;;;;;;8.70;1.80;;;;;;;12.53;68.76;101773.27;105057;1294;60320;-76
2022/10/07 08:18:41;;;;;;;8.80;1.90;;;;;;;12.63;68.80;101768.85;105164;1299;60351;-76
2022/10/07 08:21:09;;;;;;;6.50;1.90;;;;;;;12.71;68.56;101766.30;105135;1300;73812;-74
2022/10/07 08:23:37;;;;;;;8.90;2.10;;;;;;;12.80;67.81;101764.80;105102;1298;70171;-74
2022/10/07 08:26:03;;;;;;;8.10;2.60;;;;;;;12.89;67.55;101764.54;105236;1292;72436;-74
2022/10/07 08:28:31;;;;;;;6.70;2.30;;;;;;;12.93;66.80;101763.22;105160;1298;61887;-74
2022/10/07 08:31:06;;;;;;;5.40;1.80;;;;;;;13.03;66.92;101760.48;105122;1302;60551;-74
2022/10/07 08:33:38;;;;;;;6.50;1.80;;;;;;;13.08;65.56;101762.54;105001;1301;73836;-74
2022/10/07 08:36:07;;;;;;;4.20;1.70;;;;;;;13.15;66.28;101756.11;105142;1306;69209;-74
2022/10/07 08:38:35;;;;;;;9.80;1.80;;;;;;;13.26;66.18;101758.83;105086;1303;71963;-74
2022/10/07 08:41:08;;;;;;;5.70;1.60;;;;;;;13.35;65.68;101759.23;105151;1299;60567;-74
2022/10/07 08:43:44;;;;;;;7.20;1.90;;;;;;;13.45;65.53;101757.45;105195;1299;58899;-74
2022/10/07 08:46:30;;;;;;;5.60;1.60;;;;;;;13.52;64.81;101754.38;105112;1298;72942;-74
2022/10/07 08:49:09;;;;;;;4.90;1.60;;;;;;;13.56;64.83;101749.84;105067;1297;70367;-74
2022/10/07 08:51:47;;;;;;;8.20;1.90;;;;;;;13.64;65.01;101748.45;105239;1304;71180;-75
2022/10/07 08:54:17;;;;;;;6.90;1.80;;;;;;;13.71;65.23;101745.02;105186;1298;60776;-75
2022/10/07 08:56:47;;;;;;;5.90;1.60;;;;;;;13.80;64.97;101742.99;105184;1299;60150;-74
2022/10/07 08:59:23;;;;;;;7.40;1.80;;;;;;;13.88;64.90;101741.89;105171;1293;71599;-74
2022/10/07 09:01:58;;;;;;;8.40;1.90;;;;;;;13.95;64.37;101740.95;105177;1297;70598;-74
2022/10/07 09:04:43;;;;;;;10.70;2.30;;;;;;;14.03;64.19;101737.15;105241;1294;71369;-73
2022/10/07 09:07:22;;;;;;;4.90;1.50;;;;;;;14.15;63.93;101736.50;105147;1298;60453;-74
2022/10/07 09:09:55;;;;;;;7.20;2.10;;;;;;;14.27;64.03;101738.91;105167;1293;58844;-74
2022/10/07 09:12:31;;;;;;;8.50;2.10;;;;;;;14.37;63.37;101728.38;105251;1290;72030;-74
2022/10/07 09:15:01;;;;;;;6.70;1.90;;;;;;;14.45;62.87;101723.23;105179;1299;71998;-74
2022/10/07 09:17:30;;;;;;;5.20;1.70;;;;;;;14.52;62.97;101721.14;105133;1300;72509;-75
2022/10/07 09:20:06;;;;;;;8.40;1.60;;;;;;;14.62;62.71;101719.19;105102;1299;63066;-74
2022/10/07 09:22:40;;;;;;;7.00;1.60;;;;;;;14.73;62.14;101717.09;105172;1299;59421;-74
2022/10/07 09:25:10;;;;;;;3.90;1.40;;;;;;;14.80;61.92;101716.19;105089;1299;72942;-74
2022/10/07 09:27:37;;;;;;;5.90;1.60;;;;;;;14.92;62.09;101706.79;105244;1295;69946;-74
2022/10/07 09:30:05;;;;;;;5.90;1.70;;;;;;;15.05;61.89;101705.11;105246;1294;71301;-74
2022/10/07 09:32:34;;;;;;;6.70;1.50;;;;;;;15.18;61.60;101697.77;105020;1301;60041;-75
2022/10/07 09:35:04;;;;;;;8.20;1.60;;;;;;;15.29;61.29;101699.44;105274;1294;61206;-75
2022/10/07 09:37:31;;;;;;;5.80;1.50;;;;;;;15.45;61.57;101696.51;105103;1302;73723;-74
2022/10/07 09:40:20;;;;;;;6.40;1.40;;;;;;;15.50;57.76;101694.98;105250;1300;69601;-75
2022/10/07 09:42:48;;;;;;;8.50;2.10;;;;;;;15.57;57.99;101689.20;105252;1299;72463;-74
2022/10/07 09:45:25;;;;;;;7.40;1.50;;;;;;;15.61;57.32;101680.70;105180;1298;58863;-74
2022/10/07 09:47:54;;;;;;;6.60;1.50;;;;;;;15.63;57.21;101679.90;105208;1299;58631;-74
2022/10/07 09:50:30;;;;;;;10.10;1.80;;;;;;;15.75;57.88;101678.58;105164;1291;73703;-74
2022/10/07 09:52:56;;;;;;;6.70;1.50;;;;;;;15.91;57.05;101672.81;105286;1295;71266;-73
2022/10/07 09:55:33;;;;;;;5.20;1.40;;;;;;;16.01;55.84;101669.69;105110;1301;71467;-73
2022/10/07 09:58:02;;;;;;;6.70;1.60;;;;;;;16.10;55.85;101666.38;105277;1298;58969;-74
2022/10/07 10:00:29;;;;;;;6.60;1.40;;;;;;;16.15;55.64;101667.77;105176;1293;60427;-74
2022/10/07 10:03:06;;;;;;;6.80;1.80;;;;;;;16.03;54.49;101670.38;105148;1295;72572;-74
2022/10/07 10:05:50;;;;;;;6.00;1.20;;;;;;;16.07;55.20;101661.71;105169;1298;70224;-73
2022/10/07 10:08:17;;;;;;;5.50;1.70;;;;;;;16.12;55.25;101655.30;105189;1299;72669;-73
2022/10/07 10:10:55;;;;;;;6.70;1.40;;;;;;;16.09;54.70;101663.11;105279;1302;58253;-73
2022/10/07 10:13:37;;;;;;;7.20;1.30;;;;;;;16.01;54.54;101657.79;105127;1299;58834;-73
2022/10/07 10:16:33;;;;;;;5.50;1.50;;;;;;;15.98;54.51;101658.75;105195;1298;72467;-73
2022/10/07 10:19:02;;;;;;;8.00;1.20;;;;;;;16.08;55.63;101646.46;105208;1298;70057;-73
2022/10/07 10:21:34;;;;;;;3.70;1.20;;;;;;;16.21;55.61;101648.93;105129;1298;71173;-73
2022/10/07 10:24:10;;;;;;;6.70;1.50;;;;;;;16.24;54.59;101650.36;105248;1295;59023;-74
2022/10/07 10:27:02;;;;;;;5.90;1.20;;;;;;;16.33;55.10;101639.96;105166;1294;59470;-73
2022/10/07 10:29:43;;;;;;;6.50;1.40;;;;;;;16.46;54.99;101637.11;105180;1296;73581;-73
2022/10/07 10:32:20;;;;;;;7.70;1.60;;;;;;;16.55;54.47;101634.20;105222;1305;69698;-73
2022/10/07 10:35:27;;;;;;;5.70;1.30;;;;;;;16.73;54.77;101628.60;105224;1294;72514;-73
2022/10/07 10:38:24;;;;;;;6.40;1.40;;;;;;;16.89;53.69;101624.30;105005;1294;59813;-73
2022/10/07 10:41:04;;;;;;;5.10;1.30;;;;;;;16.95;53.38;101618.17;105196;1299;58844;-73
2022/10/07 10:44:06;;;;;;;9.80;2.60;;;;;;;16.96;53.47;101618.18;105144;1298;73005;-73
2022/10/07 10:47:03;;;;;;;10.60;4.80;;;;;;;17.01;53.29;101615.42;105156;1301;69732;-73
2022/10/07 10:49:33;;;;;;;68.00;52.30;;;;;;;17.09;53.63;101610.52;105188;1298;72835;-72
2022/10/07 10:52:16;;;;;;;20.90;14.70;;;;;;;17.22;53.98;101609.79;105127;1299;58847;-72
2022/10/07 10:55:10;;;;;;;31.20;25.30;;;;;;;17.37;54.06;101602.86;105255;1298;60136;-73
2022/10/07 10:57:49;;;;;;;37.00;25.80;;;;;;;17.50;53.76;101596.70;105227;1295;72350;-72
2022/10/07 11:00:18;;;;;;;15.40;9.20;;;;;;;17.54;52.76;101591.55;105153;1298;69671;-72
2022/10/07 11:03:12;;;;;;;7.40;1.40;;;;;;;17.55;52.55;101588.02;105105;1303;71996;-72
2022/10/07 11:05:41;;;;;;;6.50;1.30;;;;;;;17.62;52.92;101584.55;105231;1302;60447;-72
2022/10/07 11:08:17;;;;;;;8.00;1.50;;;;;;;17.73;52.81;101573.23;105152;1299;59232;-72
2022/10/07 11:10:50;;;;;;;7.30;1.60;;;;;;;17.87;52.01;101563.64;105049;1298;73760;-72
2022/10/07 11:13:26;;;;;;;6.00;1.30;;;;;;;17.98;52.00;101559.62;105187;1298;69957;-72
2022/10/07 11:16:16;;;;;;;9.90;1.90;;;;;;;18.07;51.22;101557.05;105223;1295;72617;-73
2022/10/07 11:18:50;;;;;;;7.10;1.50;;;;;;;18.26;51.49;101546.83;105143;1300;59487;-72
2022/10/07 11:21:36;;;;;;;5.60;1.30;;;;;;;18.43;50.83;101541.89;105261;1295;59673;-72
2022/10/07 11:24:18;;;;;;;6.90;1.70;;;;;;;18.50;48.95;101534.16;105127;1298;72605;-72
2022/10/07 11:27:09;;;;;;;7.50;1.80;;;;;;;18.64;49.07;101528.85;105135;1298;70034;-72
2022/10/07 11:29:58;;;;;;;6.30;1.70;;;;;;;18.74;47.90;101519.95;105255;1293;71189;-72
2022/10/07 11:32:43;;;;;;;9.40;1.90;;;;;;;18.90;47.03;101522.08;105174;1298;58870;-72
2022/10/07 11:35:24;;;;;;;5.70;1.30;;;;;;;19.21;46.52;101517.89;105215;1298;60276;-72
2022/10/07 11:37:59;;;;;;;6.80;1.50;;;;;;;19.62;45.50;101513.30;105233;1299;72441;-71
2022/10/07 11:40:30;;;;;;;7.50;1.70;;;;;;;19.97;43.12;101517.08;105254;1297;70834;-72
2022/10/07 11:43:05;;;;;;;5.20;1.50;;;;;;;20.41;42.06;101507.35;105162;1305;72451;-72
2022/10/07 11:45:42;;;;;;;5.40;1.30;;;;;;;20.78;41.30;101499.15;105086;1298;60248;-72
2022/10/07 11:48:23;;;;;;;4.70;1.30;;;;;;;21.23;41.18;101493.74;105247;1295;60162;-72
2022/10/07 11:51:00;;;;;;;5.70;1.30;;;;;;;21.56;40.41;101495.45;105066;1299;73734;-73
2022/10/07 11:53:35;;;;;;;6.60;1.50;;;;;;;21.71;39.63;101493.36;105162;1298;68733;-73
2022/10/07 11:56:12;;;;;;;5.00;1.50;;;;;;;21.89;40.00;101482.91;105084;1305;71072;-73
2022/10/07 11:58:38;;;;;;;4.50;1.30;;;;;;;22.08;38.97;101479.92;105107;1298;58965;-73
2022/10/07 12:01:24;;;;;;;6.00;1.40;;;;;;;22.33;38.36;101475.73;105227;1300;59193;-73